• Join FlightAware (Why Join?)
  • Login
  • US Flag 
11:38PM EDT


 

Airport Tracker/Info


-or-


 

Live Flight TrackerFlight Track Log ✈ CCA4406 ✈ 13-Jun-2013 ✈ ZULS / LXA - ZUUU / CTU

Flight Track Log - Related Links

Times and Time Zones

All times are in EDT time to prevent confusion due to time zone crossing. See the CCA4406 flight status page for this flight to view local times or setup timezone preferences in your user account.

Time Position Orientation Groundspeed Altitude Reporting Facility
EDT Latitude Longitude Course Direction KTS MPH feet Rate Location/Type
01:20AM 29.7300 94.0738 80° East  Level Estimated
01:21AM 29.7458 94.2008 82° East  Level Estimated
01:22AM 29.7614 94.3279 82° East  Level Estimated
01:23AM 29.7768 94.4550 82° East  Level Estimated
01:24AM 29.7922 94.5821 82° East  Level Estimated
01:25AM 29.8074 94.7093 82° East  Level Estimated
01:26AM 29.8226 94.8365 82° East  Level Estimated
01:27AM 29.8376 94.9638 82° East  Level Estimated
01:28AM 29.8524 95.0911 82° East  Level Estimated
01:29AM 29.8672 95.2184 82° East  Level Estimated
01:30AM 29.8818 95.3458 82° East  Level Estimated
01:31AM 29.8963 95.4732 82° East  Level Estimated
01:32AM 29.9107 95.6006 83° East  Level Estimated
01:33AM 29.9250 95.7281 83° East  Level Estimated
01:34AM 29.9391 95.8556 83° East  Level Estimated
01:35AM 29.9531 95.9832 83° East  Level Estimated
01:36AM 29.9670 96.1108 83° East  Level Estimated
01:37AM 29.9808 96.2384 83° East  Level Estimated
01:38AM 29.9944 96.3661 83° East  Level Estimated
01:39AM 30.0080 96.4938 83° East  Level Estimated
01:40AM 30.0214 96.6215 83° East  Level Estimated
01:41AM 30.0347 96.7492 83° East  Level Estimated
01:42AM 30.0478 96.8770 83° East  Level Estimated
01:43AM 30.0608 97.0049 83° East  Level Estimated
01:44AM 30.0737 97.1327 83° East  Level Estimated
01:45AM 30.0865 97.2606 83° East  Level Estimated
01:46AM 30.0992 97.3886 83° East  Level Estimated
01:47AM 30.1117 97.5165 84° East  Level Estimated
01:48AM 30.1241 97.6445 84° East  Level Estimated
01:49AM 30.1364 97.7726 84° East  Level Estimated
01:50AM 30.1486 97.9006 84° East  Level Estimated
01:51AM 30.1606 98.0287 84° East  Level Estimated
01:52AM 30.1726 98.1568 84° East  Level Estimated
01:53AM 30.1843 98.2850 84° East  Level Estimated
01:54AM 30.1960 98.4131 84° East  Level Estimated
01:55AM 30.2076 98.5414 84° East  Level Estimated
01:56AM 30.2190 98.6696 84° East  Level Estimated
01:57AM 30.2303 98.7979 84° East  Level Estimated
01:58AM 30.2414 98.9262 84° East  Level Estimated
01:59AM 30.2525 99.0545 84° East  Level Estimated
02:00AM 30.2634 99.1829 84° East  Level Estimated
02:01AM 30.2742 99.3112 84° East  Level Estimated
02:02AM 30.2848 99.4397 84° East  Level Estimated
02:03AM 30.2954 99.5681 85° East  Level Estimated
02:04AM 30.3058 99.6966 85° East  Level Estimated
02:05AM 30.3161 99.8251 85° East  Level Estimated
02:06AM 30.3263 99.9536 85° East  Level Estimated
02:07AM 30.3363 100.0822 85° East  Level Estimated
02:08AM 30.3462 100.2107 85° East  Level Estimated
02:09AM 30.3560 100.3393 85° East  Level Estimated
02:10AM 30.3657 100.4680 85° East  Level Estimated
02:11AM 30.3752 100.5966 85° East  Level Estimated
02:12AM 30.3846 100.7253 85° East  Level Estimated
02:13AM 30.3939 100.8540 85° East  Level Estimated
02:14AM 30.4030 100.9827 85° East  Level Estimated
02:15AM 30.4121 101.1115 85° East  Level Estimated
02:16AM 30.4210 101.2403 85° East  Level Estimated
02:17AM 30.4297 101.3691 85° East  Level Estimated
02:18AM 30.4384 101.4979 86° East  Level Estimated
02:19AM 30.4469 101.6267 86° East  Level Estimated
02:20AM 30.4553 101.7556 86° East  Level Estimated
02:21AM 30.4636 101.8845 86° East  Level Estimated
02:22AM 30.4717 102.0134 86° East  Level Estimated
02:23AM 30.4797 102.1423 86° East  Level Estimated
02:24AM 30.4876 102.2713 86° East  Level Estimated
02:25AM 30.4954 102.4003 86° East  Level Estimated
02:26AM 30.5030 102.5293 86° East  Level Estimated
02:27AM 30.5105 102.6583 86° East  Level Estimated
02:28AM 30.5179 102.7873 86° East  Level Estimated
02:29AM 30.5252 102.9164 86° East  Level Estimated
02:30AM 30.5323 103.0454 86° East  Level Estimated
02:31AM 30.5393 103.1745 86° East  Level Estimated
02:32AM 30.5462 103.3036 86° East  Level Estimated
02:33AM 30.5529 103.4328 86° East  Level Estimated
02:34AM 30.5595 103.5619 87° East  Level Estimated
02:35AM 30.5660 103.6911 87° East  Level Estimated
02:36AM 30.5724 103.8203 87° East  Level Estimated
02:37AM 30.5785 103.9471 87° East  Level Estimated
02:38AM 30.5785 103.9471 240° Southwest  Level Estimated
02:39AM 30.5785 103.9471 240° Southwest  Level Estimated
02:40AM 30.5785 103.9471 240° Southwest  Level Estimated
02:41AM 30.5785 103.9471 240° Southwest  Level Estimated
02:42AM 30.5785 103.9471 240° Southwest  Level Estimated
02:43AM 30.5785 103.9471 240° Southwest  Level Estimated
02:44AM 30.5785 103.9471 240° Southwest  Level Estimated
02:45AM 30.5785 103.9471 240° Southwest  Level Estimated
02:46AM 30.5785 103.9471 240° Southwest  Level Estimated
02:47AM 30.5785 103.9471 240° Southwest  Level Estimated
02:48AM 30.5785 103.9471 240° Southwest  Level Estimated
02:49AM 30.5785 103.9471 240° Southwest  Level Estimated
02:50AM 30.5785 103.9471 240° Southwest  Level Estimated
02:51AM 30.5785 103.9471 240° Southwest  Level Estimated
02:52AM 30.5785 103.9471 240° Southwest  Level Estimated
02:53AM 30.5785 103.9471 240° Southwest  Level Estimated